Hovedside
METAR-TAF:

METAR-TAF

Lufthavner :

Aarhus lufthavn

Aarhus, Danmark

breddegrad: 56-18N, lengdegrad: 010-37E, høyde over havet: 23 m

Gjeldene værobservasjon

Denne rapporten ble laget for 23 minutter siden, klokken 03:50 UTC
Vind 14 kt fra Vest-nordvest
Temperatur 11°C
Luftfuktighet 76%
Trykk 1015 hPa
Sikt 10 km eller mer

METAR: EKAH 230350Z AUTO 30014KT 9999NDV NCD 11/07 Q1015

Tid: 06:13 (04:13 UTC)

Varsel

Denne rapporten ble laget for 5 timer og 10 minutter siden, klokken 23:03 UTC
Varsel gyldig fra 23. klokken 00 UTC til 23. klokken 24 UTC
Vind 15 kt fra Vest-nordvest
Sikt 10 km eller mer
Spredte skyer i en høyde av 3000 ft
Blir
fra 23. klokken 18 UTC til 23. klokken 20 UTC
Vind 5 kt fra Vest

TAF: EKAH 222303Z 2300/2324 29015KT 9999 SCT030 BECMG 2318/2320 28005KT

Værobservasjoner og værvarsel for over 4000 flyplasser (METAR- og TAF-rapporter).

Tilgjengelige stasjoner er representert av de røde og gule prikkene på kartet.

Hold musepekeren over prikken for å se navnet på stasjonen.

Klikk så for å se værobservasjoner og -varsler.

For å forandre kartet kan du klikke på den grønne knappen med svart kryss for å zoome inn, på den grønne knappen med strek for å zoome ut, eller på de grønne pilene for å se tilstøtende kart.


METAR-TAF: